createdAt,value
2022-10-11T00:01:22.033Z,1.60
2022-10-11T00:03:48.682Z,1.43
2022-10-11T00:06:15.355Z,1.30
2022-10-11T00:08:41.914Z,1.30
2022-10-11T00:11:10.374Z,0.93
2022-10-11T00:13:37.102Z,1.17
2022-10-11T00:16:11.463Z,1.30
2022-10-11T00:18:38.480Z,1.57
2022-10-11T00:21:08.513Z,1.37
2022-10-11T00:23:35.664Z,0.90
2022-10-11T00:26:04.843Z,0.97
2022-10-11T00:28:32.081Z,0.97
2022-10-11T00:30:58.973Z,1.47
2022-10-11T00:33:25.909Z,1.80
2022-10-11T00:35:52.536Z,1.07
2022-10-11T00:38:19.421Z,1.27
2022-10-11T00:40:46.148Z,1.33
2022-10-11T00:43:19.294Z,1.40
2022-10-11T00:45:58.163Z,1.20
2022-10-11T00:48:50.651Z,1.67
2022-10-11T00:51:32.952Z,1.50
2022-10-11T00:54:01.469Z,1.43
2022-10-11T00:56:32.660Z,1.73
2022-10-11T00:59:02.369Z,2.10
2022-10-11T01:01:29.024Z,2.00
2022-10-11T01:03:56.651Z,1.27
2022-10-11T01:06:23.361Z,1.40
2022-10-11T01:08:51.431Z,1.50
2022-10-11T01:11:20.960Z,1.30
2022-10-11T01:14:35.364Z,1.93
2022-10-11T01:17:26.450Z,1.80
2022-10-11T01:20:13.125Z,1.90
2022-10-11T01:23:06.701Z,1.97
2022-10-11T01:25:42.456Z,3.73
2022-10-11T01:28:30.763Z,2.87
2022-10-11T01:31:05.976Z,4.03
2022-10-11T01:33:48.880Z,2.40
2022-10-11T01:36:27.770Z,2.93
2022-10-11T01:39:01.190Z,3.30
2022-10-11T01:41:38.380Z,4.13
2022-10-11T01:44:06.553Z,4.70
2022-10-11T01:46:34.173Z,4.43
2022-10-11T01:49:02.370Z,4.80
2022-10-11T01:51:46.330Z,4.47
2022-10-11T01:54:22.710Z,5.00
2022-10-11T01:57:22.547Z,4.17
2022-10-11T02:00:07.241Z,6.23
2022-10-11T02:02:48.648Z,5.87
2022-10-11T02:05:45.285Z,8.40
2022-10-11T02:08:36.535Z,6.50
2022-10-11T02:11:26.626Z,9.07
2022-10-11T02:13:56.625Z,8.90
2022-10-11T02:16:28.362Z,8.27
2022-10-11T02:18:56.698Z,8.50
2022-10-11T02:21:24.587Z,9.20
2022-10-11T02:24:00.073Z,7.07
2022-10-11T02:26:30.526Z,8.17
2022-10-11T02:29:01.263Z,6.80
2022-10-11T02:31:30.334Z,8.53
2022-10-11T02:34:05.842Z,8.03
2022-10-11T02:36:57.702Z,9.07
2022-10-11T02:39:31.676Z,8.40
2022-10-11T02:42:01.457Z,8.43
2022-10-11T02:44:34.967Z,9.60
2022-10-11T02:47:03.270Z,9.73
2022-10-11T02:49:30.964Z,10.03
2022-10-11T02:51:58.779Z,8.90
2022-10-11T02:54:26.250Z,9.27
2022-10-11T02:56:53.440Z,9.17
2022-10-11T02:59:20.031Z,9.83
2022-10-11T03:01:46.799Z,9.53
2022-10-11T03:04:13.555Z,9.30
2022-10-11T03:06:40.155Z,9.00
2022-10-11T03:09:06.797Z,9.53
2022-10-11T03:11:33.349Z,8.67
2022-10-11T03:13:59.920Z,10.73
2022-10-11T03:16:26.586Z,7.43
2022-10-11T03:18:53.145Z,6.83
2022-10-11T03:21:19.776Z,8.27
2022-10-11T03:23:46.389Z,7.00
2022-10-11T03:26:13.027Z,7.60
2022-10-11T03:28:39.760Z,6.93
2022-10-11T03:31:06.424Z,7.60
2022-10-11T03:33:33.030Z,7.07
2022-10-11T03:35:59.581Z,6.57
2022-10-11T03:38:26.364Z,7.03
2022-10-11T03:40:53.035Z,7.40
2022-10-11T03:43:19.721Z,8.27
2022-10-11T03:45:46.383Z,7.23
2022-10-11T03:48:12.956Z,7.23
2022-10-11T03:50:39.900Z,7.27
2022-10-11T03:53:07.067Z,6.90
2022-10-11T03:55:33.718Z,7.87
2022-10-11T03:58:00.317Z,7.33
2022-10-11T04:00:26.927Z,7.13
2022-10-11T04:02:53.573Z,7.37
2022-10-11T04:05:20.182Z,6.80
2022-10-11T04:07:46.747Z,7.67
2022-10-11T04:10:14.134Z,6.63
2022-10-11T04:12:40.736Z,7.10
2022-10-11T04:15:07.929Z,7.70
2022-10-11T04:17:34.550Z,6.60
2022-10-11T04:20:01.123Z,7.77
2022-10-11T04:22:27.683Z,7.80
2022-10-11T04:24:54.237Z,7.17
2022-10-11T04:27:20.925Z,5.97
2022-10-11T04:29:47.578Z,7.53
2022-10-11T04:32:14.186Z,6.23
2022-10-11T04:34:41.893Z,6.63
2022-10-11T04:37:08.461Z,7.30
2022-10-11T04:39:35.122Z,7.20
2022-10-11T04:42:01.790Z,7.07
2022-10-11T04:44:28.563Z,6.87
2022-10-11T04:46:55.173Z,8.23
2022-10-11T04:49:22.073Z,8.03
2022-10-11T04:51:48.719Z,8.30
2022-10-11T04:54:15.621Z,8.83
2022-10-11T04:56:42.365Z,9.40
2022-10-11T04:59:09.250Z,9.50
2022-10-11T05:01:35.884Z,10.37
2022-10-11T05:04:02.806Z,11.23
2022-10-11T05:06:29.561Z,11.40
2022-10-11T05:08:56.164Z,11.33
2022-10-11T05:11:22.825Z,8.43
2022-10-11T05:13:49.467Z,9.80
2022-10-11T05:16:16.746Z,9.50
2022-10-11T05:18:44.204Z,9.30
2022-10-11T05:21:20.348Z,8.03
2022-10-11T05:23:48.425Z,9.03
2022-10-11T05:26:15.994Z,7.77
2022-10-11T05:28:42.954Z,7.20
2022-10-11T05:31:10.468Z,8.37
2022-10-11T05:33:37.105Z,6.97
2022-10-11T05:36:04.581Z,7.77
2022-10-11T05:38:31.466Z,7.27
2022-10-11T05:41:05.347Z,7.20
2022-10-11T05:43:32.441Z,8.17
2022-10-11T05:45:59.092Z,7.07
2022-10-11T05:48:26.734Z,8.53
2022-10-11T05:50:58.601Z,7.80
2022-10-11T05:53:25.203Z,7.43
2022-10-11T05:55:51.773Z,7.63
2022-10-11T05:58:18.627Z,7.67
2022-10-11T06:00:45.218Z,7.20
2022-10-11T06:03:13.355Z,6.80
2022-10-11T06:05:40.374Z,6.70
2022-10-11T06:08:08.634Z,6.77
2022-10-11T06:10:36.137Z,5.90
2022-10-11T06:13:03.252Z,5.90
2022-10-11T06:15:31.374Z,6.30
2022-10-11T06:17:59.185Z,7.13
2022-10-11T06:20:26.832Z,6.90
2022-10-11T06:22:53.617Z,7.97
2022-10-11T06:25:20.187Z,7.17
2022-10-11T06:27:46.765Z,7.27
2022-10-11T06:30:14.167Z,6.17
2022-10-11T06:32:40.734Z,5.63
2022-10-11T06:35:07.820Z,5.50
2022-10-11T06:37:34.375Z,6.57
2022-10-11T06:40:00.972Z,5.83
2022-10-11T06:42:27.581Z,6.67
2022-10-11T06:44:54.183Z,6.17
2022-10-11T06:47:20.872Z,6.63
2022-10-11T06:49:47.466Z,6.80
2022-10-11T06:52:14.066Z,6.77
2022-10-11T06:54:44.704Z,7.27
2022-10-11T06:57:11.897Z,6.77
2022-10-11T06:59:38.487Z,6.80
2022-10-11T07:02:05.098Z,6.33
2022-10-11T07:04:33.663Z,7.83
2022-10-11T07:07:00.283Z,5.87
2022-10-11T07:09:26.863Z,5.63
2022-10-11T07:11:53.440Z,6.43
2022-10-11T07:14:20.008Z,5.93
2022-10-11T07:16:46.593Z,8.80
2022-10-11T07:19:13.209Z,9.63
2022-10-11T07:21:39.863Z,10.37
2022-10-11T07:24:06.636Z,8.03
2022-10-11T07:26:38.961Z,7.73
2022-10-11T07:29:07.754Z,8.27
2022-10-11T07:31:34.577Z,9.70
2022-10-11T07:34:01.122Z,9.40
2022-10-11T07:36:27.739Z,12.40
2022-10-11T07:38:54.325Z,10.97
2022-10-11T07:41:21.382Z,9.10
2022-10-11T07:43:49.527Z,9.73
2022-10-11T07:46:17.719Z,8.80
2022-10-11T07:48:44.324Z,9.53
2022-10-11T07:51:22.951Z,10.27
2022-10-11T07:53:55.334Z,9.93
2022-10-11T07:56:27.283Z,10.03
2022-10-11T07:58:59.579Z,8.63
2022-10-11T08:01:27.562Z,9.73
2022-10-11T08:03:54.715Z,11.20
2022-10-11T08:06:23.088Z,10.23
2022-10-11T08:08:49.924Z,8.80
2022-10-11T08:11:28.638Z,9.07
2022-10-11T08:13:55.337Z,6.83
2022-10-11T08:16:22.198Z,7.47
2022-10-11T08:18:48.897Z,7.13
2022-10-11T08:21:18.740Z,7.13
2022-10-11T08:23:45.858Z,7.93
2022-10-11T08:26:12.551Z,6.87
2022-10-11T08:28:39.353Z,6.43
2022-10-11T08:31:06.153Z,7.50
2022-10-11T08:33:33.008Z,6.90
2022-10-11T08:36:03.670Z,7.00
2022-10-11T08:38:30.493Z,7.60
2022-10-11T08:40:59.390Z,7.80
2022-10-11T08:43:56.439Z,7.77
2022-10-11T08:46:28.946Z,7.70
2022-10-11T08:48:55.620Z,8.33
2022-10-11T08:51:35.851Z,7.83
2022-10-11T08:54:38.338Z,7.60
2022-10-11T08:57:07.022Z,8.27
2022-10-11T08:59:58.257Z,8.43
2022-10-11T09:03:07.564Z,7.27
2022-10-11T09:05:41.578Z,8.33
2022-10-11T09:08:17.341Z,9.63
2022-10-11T09:10:49.738Z,12.07
2022-10-11T09:13:52.481Z,9.37
2022-10-11T09:16:32.488Z,9.83
2022-10-11T09:19:27.261Z,9.00
2022-10-11T09:22:19.782Z,8.77
2022-10-11T09:25:01.553Z,9.33
2022-10-11T09:28:01.105Z,8.70
2022-10-11T09:30:24.969Z,8.10
2022-10-11T09:33:02.333Z,8.00
2022-10-11T09:35:33.437Z,8.37
2022-10-11T09:38:17.414Z,9.23
2022-10-11T09:41:18.468Z,7.93
2022-10-11T09:43:50.882Z,8.27
2022-10-11T09:46:36.843Z,7.87
2022-10-11T09:49:10.248Z,8.37
2022-10-11T09:51:37.619Z,8.03
2022-10-11T09:54:06.322Z,8.57
2022-10-11T09:56:39.976Z,6.87
2022-10-11T09:59:26.637Z,7.03
2022-10-11T10:02:22.948Z,6.63
2022-10-11T10:05:06.803Z,7.83
2022-10-11T10:07:34.698Z,7.80
2022-10-11T10:10:27.754Z,8.57
2022-10-11T10:12:56.938Z,8.10
2022-10-11T10:15:25.759Z,8.23
2022-10-11T10:17:53.329Z,8.77
2022-10-11T10:20:23.523Z,8.53
2022-10-11T10:22:50.955Z,11.60
2022-10-11T10:25:25.590Z,8.43
2022-10-11T10:28:00.960Z,7.83
2022-10-11T10:30:33.063Z,8.13
2022-10-11T10:33:10.847Z,8.33
2022-10-11T10:35:54.222Z,9.80
2022-10-11T10:38:42.250Z,9.47
2022-10-11T10:41:14.163Z,15.60
2022-10-11T10:43:43.134Z,13.17
2022-10-11T10:46:47.435Z,11.23
2022-10-11T10:49:52.031Z,9.47
2022-10-11T10:52:45.956Z,9.47
2022-10-11T10:55:45.015Z,9.23
2022-10-11T10:58:32.702Z,10.23
2022-10-11T11:01:06.109Z,10.20
2022-10-11T11:04:06.670Z,8.93
2022-10-11T11:06:52.107Z,7.87
2022-10-11T11:09:40.360Z,8.23
2022-10-11T11:12:28.282Z,8.10
2022-10-11T11:15:19.672Z,8.50
2022-10-11T11:17:59.021Z,7.97
2022-10-11T11:20:49.095Z,6.83
2022-10-11T11:23:23.665Z,7.83
2022-10-11T11:26:12.800Z,6.63
2022-10-11T11:28:57.845Z,7.37
2022-10-11T11:31:55.094Z,6.73
2022-10-11T11:34:28.510Z,6.90
2022-10-11T11:37:01.831Z,5.97
2022-10-11T11:39:34.349Z,7.03
2022-10-11T11:42:26.373Z,6.43
2022-10-11T11:44:53.451Z,6.97
2022-10-11T11:47:25.542Z,5.93
2022-10-11T11:50:03.669Z,7.03
2022-10-11T11:52:37.039Z,6.53
2022-10-11T11:55:42.185Z,7.90
2022-10-11T11:58:37.428Z,6.03
2022-10-11T12:01:31.488Z,5.20
2022-10-11T12:04:26.620Z,4.90
2022-10-11T12:07:21.642Z,4.03
2022-10-11T12:09:52.266Z,5.73
2022-10-11T12:12:37.284Z,4.73
2022-10-11T12:15:12.465Z,4.73
2022-10-11T12:17:57.626Z,3.93
2022-10-11T12:20:32.485Z,4.17
2022-10-11T12:23:23.370Z,5.60
2022-10-11T12:26:15.797Z,4.77
2022-10-11T12:28:42.824Z,3.27
2022-10-11T12:31:22.098Z,3.53
2022-10-11T12:33:53.429Z,3.97
2022-10-11T12:36:29.619Z,4.10
2022-10-11T12:39:18.087Z,3.23
2022-10-11T12:41:47.663Z,2.63
2022-10-11T12:44:28.479Z,2.93
2022-10-11T12:46:55.005Z,3.20
2022-10-11T12:49:33.902Z,2.50
2022-10-11T12:52:20.051Z,2.67
2022-10-11T12:54:54.790Z,2.13
2022-10-11T12:57:47.356Z,2.17
2022-10-11T13:00:30.956Z,2.53
2022-10-11T13:03:28.452Z,3.17
2022-10-11T13:06:01.828Z,2.20
2022-10-11T13:08:34.782Z,2.47
2022-10-11T13:11:04.334Z,2.23
2022-10-11T13:13:45.166Z,2.20
2022-10-11T13:16:22.240Z,2.30
2022-10-11T13:18:53.728Z,2.97
2022-10-11T13:21:32.395Z,2.23
2022-10-11T13:24:01.975Z,2.70
2022-10-11T13:26:31.219Z,2.20
2022-10-11T13:28:58.385Z,1.93
2022-10-11T13:31:25.546Z,4.00
2022-10-11T13:33:59.011Z,2.37
2022-10-11T13:36:27.027Z,2.40
2022-10-11T13:38:57.769Z,2.53
2022-10-11T13:41:27.346Z,2.37
2022-10-11T13:43:59.212Z,31.73
2022-10-11T13:46:27.967Z,14.30
2022-10-11T13:49:03.024Z,8.63
2022-10-11T13:51:35.986Z,3.53
2022-10-11T13:54:13.622Z,2.80
2022-10-11T13:56:50.794Z,4.40
2022-10-11T13:59:20.442Z,2.43
2022-10-11T14:01:48.044Z,2.60
2022-10-11T14:04:17.154Z,18.17
2022-10-11T14:06:52.078Z,3.97
2022-10-11T14:09:31.184Z,4.80
2022-10-11T14:12:25.786Z,2.83
2022-10-11T14:14:52.666Z,2.80
2022-10-11T14:17:32.730Z,3.60
2022-10-11T14:20:15.306Z,3.40
2022-10-11T14:22:42.229Z,4.60
2022-10-11T14:25:08.888Z,3.57
2022-10-11T14:27:37.376Z,4.00
2022-10-11T14:30:24.952Z,2.97
2022-10-11T14:32:54.897Z,2.73
2022-10-11T14:35:27.035Z,2.90
2022-10-11T14:37:54.040Z,2.73
2022-10-11T14:40:31.456Z,2.50
2022-10-11T14:42:58.176Z,2.70
2022-10-11T14:45:24.947Z,2.83
2022-10-11T14:47:51.899Z,1.93
2022-10-11T14:50:40.468Z,2.37
2022-10-11T14:53:08.834Z,1.80
2022-10-11T14:55:36.819Z,2.80
2022-10-11T14:58:04.698Z,2.63
2022-10-11T15:00:32.250Z,2.67
2022-10-11T15:02:59.229Z,2.77
2022-10-11T15:05:33.480Z,1.97
2022-10-11T15:08:05.178Z,2.53
2022-10-11T15:10:38.982Z,1.77
2022-10-11T15:13:07.074Z,2.27
2022-10-11T15:15:36.735Z,2.50
2022-10-11T15:18:05.973Z,2.27
2022-10-11T15:20:36.235Z,2.23
2022-10-11T15:23:04.192Z,2.83
2022-10-11T15:25:30.956Z,2.70
2022-10-11T15:27:57.949Z,2.03
2022-10-11T15:30:30.586Z,2.37
2022-10-11T15:32:57.636Z,2.17
2022-10-11T15:35:25.231Z,1.73
2022-10-11T15:37:53.369Z,1.87
2022-10-11T15:40:25.950Z,5.10
2022-10-11T15:42:54.333Z,2.37
2022-10-11T15:45:21.753Z,4.30
2022-10-11T15:47:48.596Z,4.43
2022-10-11T15:50:33.576Z,2.60
2022-10-11T15:53:01.448Z,2.80
2022-10-11T15:55:28.369Z,2.57
2022-10-11T15:57:54.917Z,3.00
2022-10-11T16:00:22.449Z,2.17
2022-10-11T16:02:51.690Z,2.30
2022-10-11T16:05:23.310Z,1.80
2022-10-11T16:07:50.194Z,2.20
2022-10-11T16:10:17.070Z,3.83
2022-10-11T16:12:43.719Z,2.53
2022-10-11T16:15:10.867Z,2.20
2022-10-11T16:17:37.496Z,2.10
2022-10-11T16:20:06.647Z,2.00
2022-10-11T16:22:34.990Z,1.97
2022-10-11T16:25:02.667Z,2.07
2022-10-11T16:27:29.307Z,2.17
2022-10-11T16:29:56.157Z,2.20
2022-10-11T16:32:24.271Z,1.73
2022-10-11T16:34:50.974Z,2.40
2022-10-11T16:37:17.544Z,2.03
2022-10-11T16:39:44.268Z,2.17
2022-10-11T16:42:11.402Z,2.23
2022-10-11T16:44:39.237Z,2.80
2022-10-11T16:47:06.732Z,3.23
2022-10-11T16:49:33.853Z,2.53
2022-10-11T16:52:02.420Z,2.63
2022-10-11T16:54:32.879Z,2.73
2022-10-11T16:57:00.019Z,2.20
2022-10-11T16:59:27.085Z,2.87
2022-10-11T17:01:53.921Z,2.80
2022-10-11T17:04:20.874Z,2.53
2022-10-11T17:06:47.520Z,3.30
2022-10-11T17:09:14.451Z,2.70
2022-10-11T17:11:41.613Z,2.80
2022-10-11T17:14:08.805Z,3.37
2022-10-11T17:16:35.623Z,2.03
2022-10-11T17:19:03.397Z,2.93
2022-10-11T17:21:30.049Z,2.30
2022-10-11T17:23:56.661Z,2.70
2022-10-11T17:26:26.220Z,2.07
2022-10-11T17:28:57.676Z,2.43
2022-10-11T17:31:24.944Z,2.67
2022-10-11T17:33:53.074Z,3.23
2022-10-11T17:36:24.873Z,2.37
2022-10-11T17:38:52.206Z,2.37
2022-10-11T17:41:19.037Z,2.53
2022-10-11T17:43:46.370Z,3.17
2022-10-11T17:46:15.131Z,2.60
2022-10-11T17:48:42.072Z,2.53
2022-10-11T17:51:10.227Z,2.27
2022-10-11T17:53:37.749Z,3.20
2022-10-11T17:56:16.246Z,2.40
2022-10-11T17:58:43.339Z,2.70
2022-10-11T18:01:15.933Z,3.20
2022-10-11T18:03:43.656Z,5.10
2022-10-11T18:06:12.655Z,4.90
2022-10-11T18:08:40.843Z,4.67
2022-10-11T18:11:13.290Z,4.03
2022-10-11T18:13:42.746Z,5.87
2022-10-11T18:16:10.113Z,6.83
2022-10-11T18:18:37.107Z,5.10
2022-10-11T18:21:03.847Z,4.10
2022-10-11T18:23:30.717Z,3.50
2022-10-11T18:25:57.273Z,2.93
2022-10-11T18:28:23.988Z,3.97
2022-10-11T18:30:51.953Z,2.87
2022-10-11T18:33:18.603Z,3.63
2022-10-11T18:35:45.160Z,3.30
2022-10-11T18:38:12.038Z,2.77
2022-10-11T18:40:43.392Z,3.38
2022-10-11T18:43:11.343Z,2.73
2022-10-11T18:45:37.889Z,2.93
2022-10-11T18:48:04.693Z,3.00
2022-10-11T18:50:34.846Z,3.60
2022-10-11T18:53:02.358Z,2.77
2022-10-11T18:55:29.040Z,2.70
2022-10-11T18:57:55.774Z,2.37
2022-10-11T19:00:40.372Z,3.20
2022-10-11T19:03:07.647Z,2.90
2022-10-11T19:05:34.226Z,2.30
2022-10-11T19:08:00.813Z,2.27
2022-10-11T19:10:28.027Z,2.83
2022-10-11T19:12:54.585Z,2.30
2022-10-11T19:15:24.148Z,2.20
2022-10-11T19:17:53.109Z,3.03
2022-10-11T19:20:19.773Z,2.93
2022-10-11T19:22:46.359Z,2.30
2022-10-11T19:25:12.904Z,2.50
2022-10-11T19:27:39.515Z,2.70
2022-10-11T19:30:06.712Z,2.77
2022-10-11T19:32:33.292Z,2.27
2022-10-11T19:34:59.893Z,2.87
2022-10-11T19:37:26.532Z,2.70
2022-10-11T19:39:53.147Z,3.07
2022-10-11T19:42:20.016Z,3.03
2022-10-11T19:44:46.563Z,2.30
2022-10-11T19:47:13.104Z,2.00
2022-10-11T19:49:39.679Z,2.03
2022-10-11T19:52:06.300Z,2.10
2022-10-11T19:54:32.963Z,2.10
2022-10-11T19:56:59.526Z,2.53
2022-10-11T19:59:27.941Z,2.03
2022-10-11T20:01:54.519Z,2.37
2022-10-11T20:04:50.669Z,2.13
2022-10-11T20:07:08.654Z,1.97
2022-10-11T20:09:35.222Z,2.63
2022-10-11T20:12:01.839Z,2.57
2022-10-11T20:14:28.423Z,2.33
2022-10-11T20:16:54.984Z,1.90
2022-10-11T20:19:26.297Z,1.43
2022-10-11T20:21:56.071Z,1.70
2022-10-11T20:24:22.678Z,2.23
2022-10-11T20:26:49.267Z,1.77
2022-10-11T20:29:16.107Z,2.57
2022-10-11T20:31:42.791Z,2.30
2022-10-11T20:34:10.300Z,2.83
2022-10-11T20:36:37.068Z,3.70
2022-10-11T20:39:05.526Z,3.27
2022-10-11T20:41:36.948Z,2.73
2022-10-11T20:44:04.534Z,3.67
2022-10-11T20:46:33.405Z,3.07
2022-10-11T20:49:03.180Z,2.67
2022-10-11T20:51:31.418Z,3.00
2022-10-11T20:53:59.181Z,2.73
2022-10-11T20:56:26.647Z,2.57
2022-10-11T20:58:54.864Z,2.23
2022-10-11T21:01:26.299Z,2.00
2022-10-11T21:03:53.510Z,2.07
2022-10-11T21:06:20.509Z,3.03
2022-10-11T21:08:47.131Z,2.03
2022-10-11T21:11:13.721Z,2.40
2022-10-11T21:13:40.586Z,1.80
2022-10-11T21:16:15.763Z,2.33
2022-10-11T21:18:43.001Z,1.83
2022-10-11T21:21:12.508Z,2.67
2022-10-11T21:23:39.793Z,2.30
2022-10-11T21:26:08.901Z,2.67
2022-10-11T21:28:35.592Z,2.37
2022-10-11T21:31:07.036Z,2.83
2022-10-11T21:33:34.482Z,2.27
2022-10-11T21:36:05.914Z,3.07
2022-10-11T21:38:33.506Z,2.27
2022-10-11T21:41:04.597Z,2.10
2022-10-11T21:43:31.381Z,2.17
2022-10-11T21:45:57.966Z,2.40
2022-10-11T21:48:24.722Z,1.73
2022-10-11T21:50:55.296Z,2.63
2022-10-11T21:53:21.965Z,2.13
2022-10-11T21:55:48.507Z,2.97
2022-10-11T21:58:15.158Z,1.90
2022-10-11T22:00:41.743Z,1.80
2022-10-11T22:03:08.673Z,2.33
2022-10-11T22:05:35.470Z,2.30
2022-10-11T22:08:02.143Z,1.73
2022-10-11T22:10:29.024Z,2.40
2022-10-11T22:12:55.791Z,1.60
2022-10-11T22:15:22.469Z,1.80
2022-10-11T22:17:49.026Z,2.23
2022-10-11T22:20:15.822Z,1.90
2022-10-11T22:22:42.445Z,1.40
2022-10-11T22:25:09.255Z,1.80
2022-10-11T22:27:35.853Z,1.40
2022-10-11T22:30:02.488Z,2.07
2022-10-11T22:32:29.117Z,1.23
2022-10-11T22:34:55.895Z,1.70
2022-10-11T22:37:22.715Z,1.97
2022-10-11T22:39:49.310Z,1.47
2022-10-11T22:42:15.862Z,1.27
2022-10-11T22:44:42.420Z,1.70
2022-10-11T22:47:09.004Z,1.50
2022-10-11T22:49:35.576Z,1.73
2022-10-11T22:52:02.174Z,2.20
2022-10-11T22:54:28.780Z,1.57
2022-10-11T22:56:55.394Z,2.10
2022-10-11T22:59:21.998Z,1.40
2022-10-11T23:01:48.596Z,1.70
2022-10-11T23:04:17.547Z,1.57
2022-10-11T23:06:44.172Z,1.90
2022-10-11T23:09:10.746Z,1.80
2022-10-11T23:11:37.300Z,3.27
2022-10-11T23:14:03.963Z,3.10
2022-10-11T23:16:30.594Z,2.07
2022-10-11T23:18:57.354Z,1.77
2022-10-11T23:21:24.024Z,2.20
2022-10-11T23:23:54.020Z,2.37
2022-10-11T23:26:21.220Z,1.33
2022-10-11T23:28:47.858Z,1.50
2022-10-11T23:31:17.139Z,1.60
2022-10-11T23:33:44.850Z,1.50
2022-10-11T23:36:20.666Z,1.23
2022-10-11T23:38:58.237Z,2.50
2022-10-11T23:41:27.437Z,3.00
2022-10-11T23:43:54.520Z,2.53
2022-10-11T23:46:21.160Z,2.20
2022-10-11T23:48:48.270Z,2.73
2022-10-11T23:51:15.303Z,1.97
2022-10-11T23:53:42.562Z,2.50
2022-10-11T23:56:10.602Z,1.73
2022-10-11T23:58:37.585Z,1.83
